sensor_id;sensor_type;location;lat;lon;timestamp;temperature;humidity
2389;DHT22;1205;47.984;7.668;2024-02-16T00:01:06;10.60;99.90
2389;DHT22;1205;47.984;7.668;2024-02-16T00:03:32;10.60;99.90
2389;DHT22;1205;47.984;7.668;2024-02-16T00:05:58;10.60;99.90
2389;DHT22;1205;47.984;7.668;2024-02-16T00:08:23;10.60;99.90
2389;DHT22;1205;47.984;7.668;2024-02-16T00:10:49;10.50;99.90
2389;DHT22;1205;47.984;7.668;2024-02-16T00:13:14;10.50;99.90
2389;DHT22;1205;47.984;7.668;2024-02-16T00:15:40;10.50;99.90
2389;DHT22;1205;47.984;7.668;2024-02-16T00:18:06;10.40;99.90
2389;DHT22;1205;47.984;7.668;2024-02-16T00:20:33;10.40;99.90
2389;DHT22;1205;47.984;7.668;2024-02-16T00:22:58;10.40;99.90
2389;DHT22;1205;47.984;7.668;2024-02-16T00:25:25;10.30;99.90
2389;DHT22;1205;47.984;7.668;2024-02-16T00:27:51;10.30;99.90
2389;DHT22;1205;47.984;7.668;2024-02-16T00:30:19;10.30;99.90
2389;DHT22;1205;47.984;7.668;2024-02-16T00:32:44;10.40;99.90
2389;DHT22;1205;47.984;7.668;2024-02-16T00:35:14;10.40;99.90
2389;DHT22;1205;47.984;7.668;2024-02-16T00:37:41;10.30;99.90
2389;DHT22;1205;47.984;7.668;2024-02-16T00:40:07;10.30;99.90
2389;DHT22;1205;47.984;7.668;2024-02-16T00:42:34;10.40;99.90
2389;DHT22;1205;47.984;7.668;2024-02-16T00:44:59;10.40;99.90
2389;DHT22;1205;47.984;7.668;2024-02-16T00:47:29;10.40;99.90
2389;DHT22;1205;47.984;7.668;2024-02-16T00:49:54;10.40;99.90
2389;DHT22;1205;47.984;7.668;2024-02-16T00:52:21;10.40;99.90
2389;DHT22;1205;47.984;7.668;2024-02-16T00:54:48;10.40;99.90
2389;DHT22;1205;47.984;7.668;2024-02-16T00:57:13;10.40;99.90
2389;DHT22;1205;47.984;7.668;2024-02-16T00:59:40;10.40;99.90
2389;DHT22;1205;47.984;7.668;2024-02-16T01:02:05;10.50;99.90
2389;DHT22;1205;47.984;7.668;2024-02-16T01:04:32;10.40;99.90
2389;DHT22;1205;47.984;7.668;2024-02-16T01:06:58;10.40;99.90
2389;DHT22;1205;47.984;7.668;2024-02-16T01:09:23;10.40;99.90
2389;DHT22;1205;47.984;7.668;2024-02-16T01:11:49;10.40;99.90
2389;DHT22;1205;47.984;7.668;2024-02-16T01:14:15;10.40;99.90
2389;DHT22;1205;47.984;7.668;2024-02-16T01:16:40;10.30;99.90
2389;DHT22;1205;47.984;7.668;2024-02-16T01:19:06;10.30;99.90
2389;DHT22;1205;47.984;7.668;2024-02-16T01:21:33;10.30;99.90
2389;DHT22;1205;47.984;7.668;2024-02-16T01:23:58;10.30;99.90
2389;DHT22;1205;47.984;7.668;2024-02-16T01:26:26;10.20;99.90
2389;DHT22;1205;47.984;7.668;2024-02-16T01:28:52;10.20;99.90
2389;DHT22;1205;47.984;7.668;2024-02-16T01:31:18;10.20;99.90
2389;DHT22;1205;47.984;7.668;2024-02-16T01:33:43;10.20;99.90
2389;DHT22;1205;47.984;7.668;2024-02-16T01:36:09;10.20;99.90
2389;DHT22;1205;47.984;7.668;2024-02-16T01:38:34;10.10;99.90
2389;DHT22;1205;47.984;7.668;2024-02-16T01:41:00;10.10;99.90
2389;DHT22;1205;47.984;7.668;2024-02-16T01:43:27;10.10;99.90
2389;DHT22;1205;47.984;7.668;2024-02-16T01:45:53;10.10;99.90
2389;DHT22;1205;47.984;7.668;2024-02-16T01:48:19;10.10;99.90
2389;DHT22;1205;47.984;7.668;2024-02-16T01:50:45;10.10;99.90
2389;DHT22;1205;47.984;7.668;2024-02-16T01:53:15;10.00;99.90
2389;DHT22;1205;47.984;7.668;2024-02-16T01:55:44;10.00;99.90
2389;DHT22;1205;47.984;7.668;2024-02-16T01:58:11;10.00;99.90
2389;DHT22;1205;47.984;7.668;2024-02-16T02:00:36;10.00;99.90
2389;DHT22;1205;47.984;7.668;2024-02-16T02:03:03;9.90;99.90
2389;DHT22;1205;47.984;7.668;2024-02-16T02:05:29;9.90;99.90
2389;DHT22;1205;47.984;7.668;2024-02-16T02:07:54;9.90;99.90
2389;DHT22;1205;47.984;7.668;2024-02-16T02:10:20;9.90;99.90
2389;DHT22;1205;47.984;7.668;2024-02-16T02:12:46;10.00;99.90
2389;DHT22;1205;47.984;7.668;2024-02-16T02:15:11;10.00;99.90
2389;DHT22;1205;47.984;7.668;2024-02-16T02:17:37;10.00;99.90
2389;DHT22;1205;47.984;7.668;2024-02-16T02:20:03;10.00;99.90
2389;DHT22;1205;47.984;7.668;2024-02-16T02:22:32;10.00;99.90
2389;DHT22;1205;47.984;7.668;2024-02-16T02:24:57;9.90;99.90
2389;DHT22;1205;47.984;7.668;2024-02-16T02:27:23;9.80;99.90
2389;DHT22;1205;47.984;7.668;2024-02-16T02:29:48;9.80;99.90
2389;DHT22;1205;47.984;7.668;2024-02-16T02:32:15;9.80;99.90
2389;DHT22;1205;47.984;7.668;2024-02-16T02:34:40;9.90;99.90
2389;DHT22;1205;47.984;7.668;2024-02-16T02:37:06;9.90;99.90
2389;DHT22;1205;47.984;7.668;2024-02-16T02:39:32;9.90;99.90
2389;DHT22;1205;47.984;7.668;2024-02-16T02:41:58;10.00;99.90
2389;DHT22;1205;47.984;7.668;2024-02-16T02:44:27;10.10;99.90
2389;DHT22;1205;47.984;7.668;2024-02-16T02:46:52;10.00;99.90
2389;DHT22;1205;47.984;7.668;2024-02-16T02:49:21;10.10;99.90
2389;DHT22;1205;47.984;7.668;2024-02-16T02:51:46;10.10;99.90
2389;DHT22;1205;47.984;7.668;2024-02-16T02:54:12;10.10;99.90
2389;DHT22;1205;47.984;7.668;2024-02-16T02:56:38;10.10;99.90
2389;DHT22;1205;47.984;7.668;2024-02-16T02:59:03;10.10;99.90
2389;DHT22;1205;47.984;7.668;2024-02-16T03:01:31;10.10;99.90
2389;DHT22;1205;47.984;7.668;2024-02-16T03:03:56;10.00;99.90
2389;DHT22;1205;47.984;7.668;2024-02-16T03:06:23;10.10;99.90
2389;DHT22;1205;47.984;7.668;2024-02-16T03:08:49;10.10;99.90
2389;DHT22;1205;47.984;7.668;2024-02-16T03:11:14;10.10;99.90
2389;DHT22;1205;47.984;7.668;2024-02-16T03:13:40;10.10;99.90
2389;DHT22;1205;47.984;7.668;2024-02-16T03:16:05;10.10;99.90
2389;DHT22;1205;47.984;7.668;2024-02-16T03:18:32;10.10;99.90
2389;DHT22;1205;47.984;7.668;2024-02-16T03:20:58;10.10;99.90
2389;DHT22;1205;47.984;7.668;2024-02-16T03:23:24;10.10;99.90
2389;DHT22;1205;47.984;7.668;2024-02-16T03:25:49;10.20;99.90
2389;DHT22;1205;47.984;7.668;2024-02-16T03:28:15;10.10;99.90
2389;DHT22;1205;47.984;7.668;2024-02-16T03:30:42;10.20;99.90
2389;DHT22;1205;47.984;7.668;2024-02-16T03:33:08;10.10;99.90
2389;DHT22;1205;47.984;7.668;2024-02-16T03:35:34;10.10;99.90
2389;DHT22;1205;47.984;7.668;2024-02-16T03:38:00;10.20;99.90
2389;DHT22;1205;47.984;7.668;2024-02-16T03:40:25;10.20;99.90
2389;DHT22;1205;47.984;7.668;2024-02-16T03:42:51;10.10;99.90
2389;DHT22;1205;47.984;7.668;2024-02-16T03:45:17;10.00;99.90
2389;DHT22;1205;47.984;7.668;2024-02-16T03:47:43;9.90;99.90
2389;DHT22;1205;47.984;7.668;2024-02-16T03:50:10;9.90;99.90
2389;DHT22;1205;47.984;7.668;2024-02-16T03:52:36;9.90;99.90
2389;DHT22;1205;47.984;7.668;2024-02-16T03:55:02;9.90;99.90
2389;DHT22;1205;47.984;7.668;2024-02-16T03:57:30;10.00;99.90
2389;DHT22;1205;47.984;7.668;2024-02-16T03:59:55;10.00;99.90
2389;DHT22;1205;47.984;7.668;2024-02-16T04:02:21;10.00;99.90
2389;DHT22;1205;47.984;7.668;2024-02-16T04:04:47;10.00;99.90
2389;DHT22;1205;47.984;7.668;2024-02-16T04:07:12;10.10;99.90
2389;DHT22;1205;47.984;7.668;2024-02-16T04:09:38;10.20;99.90
2389;DHT22;1205;47.984;7.668;2024-02-16T04:12:03;10.30;99.90
2389;DHT22;1205;47.984;7.668;2024-02-16T04:14:30;10.40;99.90
2389;DHT22;1205;47.984;7.668;2024-02-16T04:16:56;10.50;99.90
2389;DHT22;1205;47.984;7.668;2024-02-16T04:19:25;10.50;99.90
2389;DHT22;1205;47.984;7.668;2024-02-16T04:21:51;10.60;99.90
2389;DHT22;1205;47.984;7.668;2024-02-16T04:24:17;10.50;99.90
2389;DHT22;1205;47.984;7.668;2024-02-16T04:26:43;10.50;99.90
2389;DHT22;1205;47.984;7.668;2024-02-16T04:29:09;10.50;99.90
2389;DHT22;1205;47.984;7.668;2024-02-16T04:31:34;10.60;99.90
2389;DHT22;1205;47.984;7.668;2024-02-16T04:34:00;10.70;99.90
2389;DHT22;1205;47.984;7.668;2024-02-16T04:36:27;10.70;99.90
2389;DHT22;1205;47.984;7.668;2024-02-16T04:38:52;10.70;99.90
2389;DHT22;1205;47.984;7.668;2024-02-16T04:41:20;10.70;99.90
2389;DHT22;1205;47.984;7.668;2024-02-16T04:43:45;10.70;99.90
2389;DHT22;1205;47.984;7.668;2024-02-16T04:46:17;10.80;99.90
2389;DHT22;1205;47.984;7.668;2024-02-16T04:48:43;10.80;99.90
2389;DHT22;1205;47.984;7.668;2024-02-16T04:51:09;10.80;99.90
2389;DHT22;1205;47.984;7.668;2024-02-16T04:53:35;10.70;99.90
2389;DHT22;1205;47.984;7.668;2024-02-16T04:56:01;10.70;99.90
2389;DHT22;1205;47.984;7.668;2024-02-16T04:58:27;10.60;99.90
2389;DHT22;1205;47.984;7.668;2024-02-16T05:00:53;10.70;99.90
2389;DHT22;1205;47.984;7.668;2024-02-16T05:03:18;10.70;99.90
2389;DHT22;1205;47.984;7.668;2024-02-16T05:05:44;10.80;99.90
2389;DHT22;1205;47.984;7.668;2024-02-16T05:08:10;10.80;99.90
2389;DHT22;1205;47.984;7.668;2024-02-16T05:10:36;10.80;99.90
2389;DHT22;1205;47.984;7.668;2024-02-16T05:13:02;10.80;99.90
2389;DHT22;1205;47.984;7.668;2024-02-16T05:15:28;10.80;99.90
2389;DHT22;1205;47.984;7.668;2024-02-16T05:17:53;10.90;99.90
2389;DHT22;1205;47.984;7.668;2024-02-16T05:20:19;10.90;99.90
2389;DHT22;1205;47.984;7.668;2024-02-16T05:22:45;11.40;99.90
2389;DHT22;1205;47.984;7.668;2024-02-16T05:25:12;11.60;99.90
2389;DHT22;1205;47.984;7.668;2024-02-16T05:27:38;11.40;99.90
2389;DHT22;1205;47.984;7.668;2024-02-16T05:30:05;11.30;99.90
2389;DHT22;1205;47.984;7.668;2024-02-16T05:32:36;11.30;99.90
2389;DHT22;1205;47.984;7.668;2024-02-16T05:35:03;11.20;99.90
2389;DHT22;1205;47.984;7.668;2024-02-16T05:37:47;11.20;99.90
2389;DHT22;1205;47.984;7.668;2024-02-16T05:40:20;11.20;99.90
2389;DHT22;1205;47.984;7.668;2024-02-16T05:42:57;11.20;99.90
2389;DHT22;1205;47.984;7.668;2024-02-16T05:45:23;11.20;99.90
2389;DHT22;1205;47.984;7.668;2024-02-16T05:47:50;11.20;99.90
2389;DHT22;1205;47.984;7.668;2024-02-16T05:50:16;11.20;99.90
2389;DHT22;1205;47.984;7.668;2024-02-16T05:52:43;11.30;99.90
2389;DHT22;1205;47.984;7.668;2024-02-16T05:55:10;11.20;99.90
2389;DHT22;1205;47.984;7.668;2024-02-16T05:57:36;11.30;99.90
2389;DHT22;1205;47.984;7.668;2024-02-16T06:00:07;11.30;99.90
2389;DHT22;1205;47.984;7.668;2024-02-16T06:02:33;11.40;99.90
2389;DHT22;1205;47.984;7.668;2024-02-16T06:05:00;11.40;99.90
2389;DHT22;1205;47.984;7.668;2024-02-16T06:07:26;11.40;99.90
2389;DHT22;1205;47.984;7.668;2024-02-16T06:09:51;11.50;99.90
2389;DHT22;1205;47.984;7.668;2024-02-16T06:12:19;11.50;99.90
2389;DHT22;1205;47.984;7.668;2024-02-16T06:14:45;11.50;99.90
2389;DHT22;1205;47.984;7.668;2024-02-16T06:17:11;11.50;99.90
2389;DHT22;1205;47.984;7.668;2024-02-16T06:19:40;11.50;99.90
2389;DHT22;1205;47.984;7.668;2024-02-16T06:22:06;11.60;99.90
2389;DHT22;1205;47.984;7.668;2024-02-16T06:24:33;11.60;99.90
2389;DHT22;1205;47.984;7.668;2024-02-16T06:26:59;11.70;99.90
2389;DHT22;1205;47.984;7.668;2024-02-16T06:29:25;11.60;99.90
2389;DHT22;1205;47.984;7.668;2024-02-16T06:31:50;11.70;99.90
2389;DHT22;1205;47.984;7.668;2024-02-16T06:34:18;11.70;99.90
2389;DHT22;1205;47.984;7.668;2024-02-16T06:36:43;11.80;99.90
2389;DHT22;1205;47.984;7.668;2024-02-16T06:39:09;11.70;99.90
2389;DHT22;1205;47.984;7.668;2024-02-16T06:41:44;11.70;99.90
2389;DHT22;1205;47.984;7.668;2024-02-16T06:44:14;11.70;99.90
2389;DHT22;1205;47.984;7.668;2024-02-16T06:46:41;11.80;99.90
2389;DHT22;1205;47.984;7.668;2024-02-16T06:49:07;11.80;99.90
2389;DHT22;1205;47.984;7.668;2024-02-16T06:51:32;11.80;99.90
2389;DHT22;1205;47.984;7.668;2024-02-16T06:53:58;11.80;99.90
2389;DHT22;1205;47.984;7.668;2024-02-16T06:56:23;11.80;99.90
2389;DHT22;1205;47.984;7.668;2024-02-16T06:58:49;11.90;99.90
2389;DHT22;1205;47.984;7.668;2024-02-16T07:01:16;11.90;99.90
2389;DHT22;1205;47.984;7.668;2024-02-16T07:03:43;11.90;99.90
2389;DHT22;1205;47.984;7.668;2024-02-16T07:06:08;11.90;99.90
2389;DHT22;1205;47.984;7.668;2024-02-16T07:08:42;12.00;99.90
2389;DHT22;1205;47.984;7.668;2024-02-16T07:11:09;12.00;99.90
2389;DHT22;1205;47.984;7.668;2024-02-16T07:13:37;12.00;99.90
2389;DHT22;1205;47.984;7.668;2024-02-16T07:16:03;12.00;99.90
2389;DHT22;1205;47.984;7.668;2024-02-16T07:18:30;12.10;99.90
2389;DHT22;1205;47.984;7.668;2024-02-16T07:20:56;12.40;99.90
2389;DHT22;1205;47.984;7.668;2024-02-16T07:23:21;12.30;99.90
2389;DHT22;1205;47.984;7.668;2024-02-16T07:25:47;12.30;99.90
2389;DHT22;1205;47.984;7.668;2024-02-16T07:28:14;12.20;99.90
2389;DHT22;1205;47.984;7.668;2024-02-16T07:30:40;12.20;99.90
2389;DHT22;1205;47.984;7.668;2024-02-16T07:33:08;12.20;99.90
2389;DHT22;1205;47.984;7.668;2024-02-16T07:35:34;12.20;99.90
2389;DHT22;1205;47.984;7.668;2024-02-16T07:38:04;12.80;99.90
2389;DHT22;1205;47.984;7.668;2024-02-16T07:40:30;13.20;99.90
2389;DHT22;1205;47.984;7.668;2024-02-16T07:42:56;13.40;99.90
2389;DHT22;1205;47.984;7.668;2024-02-16T07:45:22;13.60;99.90
2389;DHT22;1205;47.984;7.668;2024-02-16T07:47:47;13.70;99.90
2389;DHT22;1205;47.984;7.668;2024-02-16T07:50:13;13.80;99.90
2389;DHT22;1205;47.984;7.668;2024-02-16T07:52:39;14.00;99.90
2389;DHT22;1205;47.984;7.668;2024-02-16T07:55:08;14.10;99.90
2389;DHT22;1205;47.984;7.668;2024-02-16T07:57:34;14.20;99.90
2389;DHT22;1205;47.984;7.668;2024-02-16T08:00:00;14.30;99.90
2389;DHT22;1205;47.984;7.668;2024-02-16T08:02:25;14.40;99.90
2389;DHT22;1205;47.984;7.668;2024-02-16T08:04:51;14.20;99.90
2389;DHT22;1205;47.984;7.668;2024-02-16T08:07:17;14.00;99.90
2389;DHT22;1205;47.984;7.668;2024-02-16T08:09:46;14.00;99.90
2389;DHT22;1205;47.984;7.668;2024-02-16T08:12:15;14.00;99.90
2389;DHT22;1205;47.984;7.668;2024-02-16T08:14:41;14.00;99.90
2389;DHT22;1205;47.984;7.668;2024-02-16T08:17:08;14.00;99.90
2389;DHT22;1205;47.984;7.668;2024-02-16T08:19:35;14.50;99.90
2389;DHT22;1205;47.984;7.668;2024-02-16T08:22:02;14.80;99.90
2389;DHT22;1205;47.984;7.668;2024-02-16T08:24:28;15.00;99.90
2389;DHT22;1205;47.984;7.668;2024-02-16T08:26:55;15.10;99.90
2389;DHT22;1205;47.984;7.668;2024-02-16T08:29:21;15.20;99.90
2389;DHT22;1205;47.984;7.668;2024-02-16T08:31:50;15.20;99.90
2389;DHT22;1205;47.984;7.668;2024-02-16T08:34:16;15.30;99.90
2389;DHT22;1205;47.984;7.668;2024-02-16T08:36:46;15.30;99.90
2389;DHT22;1205;47.984;7.668;2024-02-16T08:39:12;15.50;99.90
2389;DHT22;1205;47.984;7.668;2024-02-16T08:41:38;15.50;99.90
2389;DHT22;1205;47.984;7.668;2024-02-16T08:44:04;15.60;99.90
2389;DHT22;1205;47.984;7.668;2024-02-16T08:46:30;15.70;99.90
2389;DHT22;1205;47.984;7.668;2024-02-16T08:48:56;15.50;99.90
2389;DHT22;1205;47.984;7.668;2024-02-16T08:51:21;15.40;99.90
2389;DHT22;1205;47.984;7.668;2024-02-16T08:53:47;15.30;99.90
2389;DHT22;1205;47.984;7.668;2024-02-16T08:56:12;15.20;99.90
2389;DHT22;1205;47.984;7.668;2024-02-16T08:58:38;15.20;99.90
2389;DHT22;1205;47.984;7.668;2024-02-16T09:01:04;15.20;99.90
2389;DHT22;1205;47.984;7.668;2024-02-16T09:03:30;15.20;99.90
2389;DHT22;1205;47.984;7.668;2024-02-16T09:06:03;15.20;99.90
2389;DHT22;1205;47.984;7.668;2024-02-16T09:08:29;15.20;99.90
2389;DHT22;1205;47.984;7.668;2024-02-16T09:11:02;15.30;99.90
2389;DHT22;1205;47.984;7.668;2024-02-16T09:13:34;15.30;99.90
2389;DHT22;1205;47.984;7.668;2024-02-16T09:16:01;15.30;99.90
2389;DHT22;1205;47.984;7.668;2024-02-16T09:18:27;15.40;99.90
2389;DHT22;1205;47.984;7.668;2024-02-16T09:20:52;15.30;99.90
2389;DHT22;1205;47.984;7.668;2024-02-16T09:23:18;15.40;99.90
2389;DHT22;1205;47.984;7.668;2024-02-16T09:25:44;15.40;99.90
2389;DHT22;1205;47.984;7.668;2024-02-16T09:28:12;15.50;99.90
2389;DHT22;1205;47.984;7.668;2024-02-16T09:30:38;15.40;99.90
2389;DHT22;1205;47.984;7.668;2024-02-16T09:33:04;15.50;99.90
2389;DHT22;1205;47.984;7.668;2024-02-16T09:35:30;15.50;99.90
2389;DHT22;1205;47.984;7.668;2024-02-16T09:37:56;15.50;99.90
2389;DHT22;1205;47.984;7.668;2024-02-16T09:40:22;15.60;99.90
2389;DHT22;1205;47.984;7.668;2024-02-16T09:42:48;15.60;99.90
2389;DHT22;1205;47.984;7.668;2024-02-16T09:45:17;15.70;99.90
2389;DHT22;1205;47.984;7.668;2024-02-16T09:47:45;15.80;99.90
2389;DHT22;1205;47.984;7.668;2024-02-16T09:50:12;15.90;99.90
2389;DHT22;1205;47.984;7.668;2024-02-16T09:52:39;16.00;99.90
2389;DHT22;1205;47.984;7.668;2024-02-16T09:55:08;16.10;99.90
2389;DHT22;1205;47.984;7.668;2024-02-16T09:57:35;16.10;99.90
2389;DHT22;1205;47.984;7.668;2024-02-16T10:00:02;16.20;99.90
2389;DHT22;1205;47.984;7.668;2024-02-16T10:02:42;16.20;99.90
2389;DHT22;1205;47.984;7.668;2024-02-16T10:05:15;16.30;99.90
2389;DHT22;1205;47.984;7.668;2024-02-16T10:07:42;16.30;99.90
2389;DHT22;1205;47.984;7.668;2024-02-16T10:10:26;16.30;99.90
2389;DHT22;1205;47.984;7.668;2024-02-16T10:13:05;16.40;99.90
2389;DHT22;1205;47.984;7.668;2024-02-16T10:15:32;16.50;99.90
2389;DHT22;1205;47.984;7.668;2024-02-16T10:18:05;16.50;99.90
2389;DHT22;1205;47.984;7.668;2024-02-16T10:20:34;16.50;99.90
2389;DHT22;1205;47.984;7.668;2024-02-16T10:25:28;16.40;99.90
2389;DHT22;1205;47.984;7.668;2024-02-16T10:27:54;16.30;99.90
2389;DHT22;1205;47.984;7.668;2024-02-16T10:30:26;16.30;99.90
2389;DHT22;1205;47.984;7.668;2024-02-16T10:32:54;16.30;99.90
2389;DHT22;1205;47.984;7.668;2024-02-16T10:35:21;16.30;99.90
2389;DHT22;1205;47.984;7.668;2024-02-16T10:37:47;16.40;99.90
2389;DHT22;1205;47.984;7.668;2024-02-16T10:40:13;16.50;99.90
2389;DHT22;1205;47.984;7.668;2024-02-16T10:42:45;16.50;99.90
2389;DHT22;1205;47.984;7.668;2024-02-16T10:45:12;16.60;99.90
2389;DHT22;1205;47.984;7.668;2024-02-16T10:47:38;16.50;99.90
2389;DHT22;1205;47.984;7.668;2024-02-16T10:50:04;16.60;99.90
2389;DHT22;1205;47.984;7.668;2024-02-16T10:52:31;16.50;99.90
2389;DHT22;1205;47.984;7.668;2024-02-16T10:54:57;16.40;99.90
2389;DHT22;1205;47.984;7.668;2024-02-16T10:57:24;16.40;99.90
2389;DHT22;1205;47.984;7.668;2024-02-16T10:59:52;16.30;99.90
2389;DHT22;1205;47.984;7.668;2024-02-16T11:02:19;16.40;99.90
2389;DHT22;1205;47.984;7.668;2024-02-16T11:04:46;16.40;99.90
2389;DHT22;1205;47.984;7.668;2024-02-16T11:07:18;16.40;99.90
2389;DHT22;1205;47.984;7.668;2024-02-16T11:09:45;16.30;99.90
2389;DHT22;1205;47.984;7.668;2024-02-16T11:12:15;16.30;99.90
2389;DHT22;1205;47.984;7.668;2024-02-16T11:14:42;16.30;99.90
2389;DHT22;1205;47.984;7.668;2024-02-16T11:17:12;16.10;99.90
2389;DHT22;1205;47.984;7.668;2024-02-16T11:19:42;16.10;99.90
2389;DHT22;1205;47.984;7.668;2024-02-16T11:22:08;16.10;99.90
2389;DHT22;1205;47.984;7.668;2024-02-16T11:24:35;16.10;99.90
2389;DHT22;1205;47.984;7.668;2024-02-16T11:27:02;16.00;99.90
2389;DHT22;1205;47.984;7.668;2024-02-16T11:29:32;16.00;99.90
2389;DHT22;1205;47.984;7.668;2024-02-16T11:32:00;16.10;99.90
2389;DHT22;1205;47.984;7.668;2024-02-16T11:34:26;16.10;99.90
2389;DHT22;1205;47.984;7.668;2024-02-16T11:36:54;16.00;99.90
2389;DHT22;1205;47.984;7.668;2024-02-16T11:39:21;16.10;99.90
2389;DHT22;1205;47.984;7.668;2024-02-16T11:41:46;16.10;99.90
2389;DHT22;1205;47.984;7.668;2024-02-16T11:44:15;16.20;99.90
2389;DHT22;1205;47.984;7.668;2024-02-16T11:46:42;16.10;99.90
2389;DHT22;1205;47.984;7.668;2024-02-16T11:49:08;16.10;99.90
2389;DHT22;1205;47.984;7.668;2024-02-16T11:51:34;16.20;99.90
2389;DHT22;1205;47.984;7.668;2024-02-16T11:53:59;16.40;99.90
2389;DHT22;1205;47.984;7.668;2024-02-16T11:56:25;16.50;99.90
2389;DHT22;1205;47.984;7.668;2024-02-16T11:58:54;16.40;99.90
2389;DHT22;1205;47.984;7.668;2024-02-16T12:01:20;16.60;99.90
2389;DHT22;1205;47.984;7.668;2024-02-16T12:03:46;16.50;99.90
2389;DHT22;1205;47.984;7.668;2024-02-16T12:06:20;16.50;99.90
2389;DHT22;1205;47.984;7.668;2024-02-16T12:08:50;16.50;99.90
2389;DHT22;1205;47.984;7.668;2024-02-16T12:11:17;16.50;99.90
2389;DHT22;1205;47.984;7.668;2024-02-16T12:13:44;16.60;99.90
2389;DHT22;1205;47.984;7.668;2024-02-16T12:16:10;16.50;99.90
2389;DHT22;1205;47.984;7.668;2024-02-16T12:18:36;16.40;99.90
2389;DHT22;1205;47.984;7.668;2024-02-16T12:21:04;16.40;99.90
2389;DHT22;1205;47.984;7.668;2024-02-16T12:23:33;16.30;99.90
2389;DHT22;1205;47.984;7.668;2024-02-16T12:26:00;16.30;99.90
2389;DHT22;1205;47.984;7.668;2024-02-16T12:28:27;16.40;99.90
2389;DHT22;1205;47.984;7.668;2024-02-16T12:30:56;16.40;99.90
2389;DHT22;1205;47.984;7.668;2024-02-16T12:33:22;16.30;99.90
2389;DHT22;1205;47.984;7.668;2024-02-16T12:35:48;16.20;99.90
2389;DHT22;1205;47.984;7.668;2024-02-16T12:38:14;16.20;99.90
2389;DHT22;1205;47.984;7.668;2024-02-16T12:40:42;16.20;99.90
2389;DHT22;1205;47.984;7.668;2024-02-16T12:43:08;16.20;99.90
2389;DHT22;1205;47.984;7.668;2024-02-16T12:45:36;16.20;99.90
2389;DHT22;1205;47.984;7.668;2024-02-16T12:48:03;16.30;99.90
2389;DHT22;1205;47.984;7.668;2024-02-16T12:50:30;16.30;99.90
2389;DHT22;1205;47.984;7.668;2024-02-16T12:52:55;16.30;99.90
2389;DHT22;1205;47.984;7.668;2024-02-16T12:55:22;16.50;99.90
2389;DHT22;1205;47.984;7.668;2024-02-16T12:57:49;16.40;99.90
2389;DHT22;1205;47.984;7.668;2024-02-16T13:00:15;16.60;99.90
2389;DHT22;1205;47.984;7.668;2024-02-16T13:02:40;16.50;99.90
2389;DHT22;1205;47.984;7.668;2024-02-16T13:05:06;16.70;99.90
2389;DHT22;1205;47.984;7.668;2024-02-16T13:07:33;16.80;99.90
2389;DHT22;1205;47.984;7.668;2024-02-16T13:09:59;16.90;99.90
2389;DHT22;1205;47.984;7.668;2024-02-16T13:12:25;17.00;99.90
2389;DHT22;1205;47.984;7.668;2024-02-16T13:14:50;17.10;99.90
2389;DHT22;1205;47.984;7.668;2024-02-16T13:17:16;17.20;99.90
2389;DHT22;1205;47.984;7.668;2024-02-16T13:19:42;17.20;99.90
2389;DHT22;1205;47.984;7.668;2024-02-16T13:22:08;17.20;99.90
2389;DHT22;1205;47.984;7.668;2024-02-16T13:24:33;17.30;99.90
2389;DHT22;1205;47.984;7.668;2024-02-16T13:26:59;17.40;99.90
2389;DHT22;1205;47.984;7.668;2024-02-16T13:29:25;17.50;99.90
2389;DHT22;1205;47.984;7.668;2024-02-16T13:31:51;17.60;99.90
2389;DHT22;1205;47.984;7.668;2024-02-16T13:34:16;17.80;99.90
2389;DHT22;1205;47.984;7.668;2024-02-16T13:36:42;17.70;99.90
2389;DHT22;1205;47.984;7.668;2024-02-16T13:39:07;17.90;99.90
2389;DHT22;1205;47.984;7.668;2024-02-16T13:41:33;17.80;99.90
2389;DHT22;1205;47.984;7.668;2024-02-16T13:43:59;17.80;99.90
2389;DHT22;1205;47.984;7.668;2024-02-16T13:46:25;17.90;99.90
2389;DHT22;1205;47.984;7.668;2024-02-16T13:48:50;18.00;99.90
2389;DHT22;1205;47.984;7.668;2024-02-16T13:51:16;17.90;99.90
2389;DHT22;1205;47.984;7.668;2024-02-16T13:53:42;17.90;99.90
2389;DHT22;1205;47.984;7.668;2024-02-16T13:56:08;17.90;99.90
2389;DHT22;1205;47.984;7.668;2024-02-16T13:58:34;17.90;99.90
2389;DHT22;1205;47.984;7.668;2024-02-16T14:01:04;17.80;99.90
2389;DHT22;1205;47.984;7.668;2024-02-16T14:03:30;17.80;99.90
2389;DHT22;1205;47.984;7.668;2024-02-16T14:05:56;17.60;99.90
2389;DHT22;1205;47.984;7.668;2024-02-16T14:08:21;17.40;99.90
2389;DHT22;1205;47.984;7.668;2024-02-16T14:10:48;17.20;99.90
2389;DHT22;1205;47.984;7.668;2024-02-16T14:13:13;17.30;99.90
2389;DHT22;1205;47.984;7.668;2024-02-16T14:15:39;17.20;99.90
2389;DHT22;1205;47.984;7.668;2024-02-16T14:18:04;17.10;99.90
2389;DHT22;1205;47.984;7.668;2024-02-16T14:20:32;17.00;99.90
2389;DHT22;1205;47.984;7.668;2024-02-16T14:22:58;17.00;99.90
2389;DHT22;1205;47.984;7.668;2024-02-16T14:25:23;17.00;99.90
2389;DHT22;1205;47.984;7.668;2024-02-16T14:27:50;16.80;99.90
2389;DHT22;1205;47.984;7.668;2024-02-16T14:30:16;16.70;99.90
2389;DHT22;1205;47.984;7.668;2024-02-16T14:32:42;16.60;99.90
2389;DHT22;1205;47.984;7.668;2024-02-16T14:35:07;16.50;99.90
2389;DHT22;1205;47.984;7.668;2024-02-16T14:37:33;16.50;99.90
2389;DHT22;1205;47.984;7.668;2024-02-16T14:39:59;16.60;99.90
2389;DHT22;1205;47.984;7.668;2024-02-16T14:42:26;16.60;99.90
2389;DHT22;1205;47.984;7.668;2024-02-16T14:44:51;16.60;99.90
2389;DHT22;1205;47.984;7.668;2024-02-16T14:47:17;16.70;99.90
2389;DHT22;1205;47.984;7.668;2024-02-16T14:49:43;16.60;99.90
2389;DHT22;1205;47.984;7.668;2024-02-16T14:52:08;16.60;99.90
2389;DHT22;1205;47.984;7.668;2024-02-16T14:54:35;16.60;99.90
2389;DHT22;1205;47.984;7.668;2024-02-16T14:57:01;16.50;99.90
2389;DHT22;1205;47.984;7.668;2024-02-16T14:59:27;16.50;99.90
2389;DHT22;1205;47.984;7.668;2024-02-16T15:01:55;16.50;99.90
2389;DHT22;1205;47.984;7.668;2024-02-16T15:04:22;16.50;99.90
2389;DHT22;1205;47.984;7.668;2024-02-16T15:06:47;16.50;99.90
2389;DHT22;1205;47.984;7.668;2024-02-16T15:09:13;16.60;99.90
2389;DHT22;1205;47.984;7.668;2024-02-16T15:11:38;16.50;99.90
2389;DHT22;1205;47.984;7.668;2024-02-16T15:14:04;16.50;99.90
2389;DHT22;1205;47.984;7.668;2024-02-16T15:16:30;16.40;99.90
2389;DHT22;1205;47.984;7.668;2024-02-16T15:18:56;16.40;99.90
2389;DHT22;1205;47.984;7.668;2024-02-16T15:21:21;16.40;99.90
2389;DHT22;1205;47.984;7.668;2024-02-16T15:23:47;16.40;99.90
2389;DHT22;1205;47.984;7.668;2024-02-16T15:26:13;16.30;99.90
2389;DHT22;1205;47.984;7.668;2024-02-16T15:28:38;16.20;99.90
2389;DHT22;1205;47.984;7.668;2024-02-16T15:31:05;16.20;99.90
2389;DHT22;1205;47.984;7.668;2024-02-16T15:33:30;16.00;99.90
2389;DHT22;1205;47.984;7.668;2024-02-16T15:35:56;16.00;99.90
2389;DHT22;1205;47.984;7.668;2024-02-16T15:38:25;16.00;99.90
2389;DHT22;1205;47.984;7.668;2024-02-16T15:40:51;15.90;99.90
2389;DHT22;1205;47.984;7.668;2024-02-16T15:43:16;15.90;99.90
2389;DHT22;1205;47.984;7.668;2024-02-16T15:45:43;15.90;99.90
2389;DHT22;1205;47.984;7.668;2024-02-16T15:48:11;15.90;99.90
2389;DHT22;1205;47.984;7.668;2024-02-16T15:50:38;15.80;99.90
2389;DHT22;1205;47.984;7.668;2024-02-16T15:53:04;15.70;99.90
2389;DHT22;1205;47.984;7.668;2024-02-16T15:55:31;15.70;99.90
2389;DHT22;1205;47.984;7.668;2024-02-16T15:57:57;15.60;99.90
2389;DHT22;1205;47.984;7.668;2024-02-16T16:00:23;15.60;99.90